Decoded Metar for KIFA ( in _UNIDENTIFIED) (IATA:N/A) | Meteo·Mobile Aviation Weather
aviador You're here:

KIFA Decoded Metar

in _UNIDENTIFIED
Report Time2019-06-27 08:55:00
UTC Time2019-06-27 09:05:05
Flight Rules vfr VFR
Wind110° at 03 kt
W.Decomp.*RWY 13: 2.8 kt HW 1.1 kt LCW
Visibility9999 m
Phenomena:N/A
Clouds:N/A
Expected CloudBase > 400 ft AGL from Temp-Dew spread
CeilingNone
Temp19°C (ISA +6)
Dew Point18°C (94% RH)
QNH1019 hPa
Density Alt1,949 ft
Elevation1,138 ft
Report Wrong Elevation
Raw Report
KIFA 270855Z AUTO 11003KT 10SM CLR 19/18 A3009 RMK AO2
T01940182=

Extra information for KIFA:More info

Metar Taf Metar & Taf Last 4 Metars F.Rules Stats Wind Profile Meteogram Temp Stats Metar ALERT Operation Metar Decoded Social comments